Change the Weather History Date:

Sunday, December 1, 2013

  Actual Average (KBRL) Record (KBRL)
Temperature  
Mean Temperature 40 °F 34 °F  
Max Temperature 51 °F 43 °F 63 °F (1982)
Min Temperature 29 °F 26 °F 4 °F (1942)
Degree Days  
Heating Degree Days 25 31  
Month to date heating degree days 31  
Since 1 July heating degree days 1104  
Cooling Degree Days 0 0  
Month to date cooling degree days 0  
Year to date cooling degree days 1207  
Moisture  
Dew Point 31 °F    
Average Humidity 74    
Maximum Humidity 92    
Minimum Humidity 47    
Precipitation  
Precipitation 0.00 in 0.08 in 0.20 in (2007)
Month to date precipitation 0.08  
Year to date precipitation 36.47  
Sea Level Pressure  
Sea Level Pressure 30.07 in    
Wind  
Wind Speed 5 mph (North)    
Max Wind Speed 10 mph    
Max Gust Speed -    
Visibility 9 miles    
Events      
T = Trace of Precipitation, MM = Missing Value Source: NWS Daily Summary

Daily Weather History Graph

Daily Weather History Graph

Search for Another Location

Airport or City:

Trip Planner

Search our weather history database for the weather conditions in past years. The results will help you decide how hot, cold, wet, or windy it might be!

Date:

Astronomy

Dec. 01, 2013 Rise Set
Actual Time 7:06 AM CST 4:36 PM CST
Civil Twilight 6:36 AM CST 5:06 PM CST
Nautical Twilight 6:02 AM CST 5:40 PM CST
Astronomical Twilight 5:29 AM CST 6:13 PM CST
Moon 5:24 AM CST (12/1) 3:46 PM CST (12/1)
Length of Visible Light 10h 30m
Length of Day
9h 29m
Waning Crescent, 2% of the Moon is Illuminated
Dec 1
Waning Crescent
Dec 2
New
Dec 9
First Quarter
Dec 17
Full
Dec 25
Last Quarter

Hourly Weather History & Observations

Time (CST) Temp. Windchill Dew Point Humidity Pressure Visibility Wind Dir Wind Speed Gust Speed Precip Events Conditions
12:15 AM 33.8 °F 27.7 °F 30.9 °F 89% 30.11 in 10.0 mi West 6.9 mph - N/A   Clear
12:35 AM 32.0 °F 24.8 °F 29.3 °F 90% 30.11 in 10.0 mi WNW 8.1 mph - N/A   Clear
12:55 AM 32.2 °F 23.8 °F 29.5 °F 90% 30.10 in 10.0 mi WNW 10.4 mph - N/A   Clear
1:15 AM 32.0 °F 24.2 °F 29.7 °F 91% 30.10 in 10.0 mi WNW 9.2 mph - N/A   Clear
1:35 AM 32.2 °F 24.4 °F 29.5 °F 90% 30.10 in 10.0 mi WNW 9.2 mph - N/A   Clear
1:55 AM 32.4 °F 24.6 °F 30.0 °F 91% 30.10 in 10.0 mi NW 9.2 mph - N/A   Clear
2:15 AM 32.0 °F 24.2 °F 29.1 °F 89% 30.10 in 10.0 mi NW 9.2 mph - N/A   Clear
2:35 AM 32.0 °F 24.2 °F 29.1 °F 89% 30.10 in 10.0 mi NW 9.2 mph - N/A   Clear
2:55 AM 31.8 °F 24.6 °F 28.9 °F 89% 30.10 in 10.0 mi NW 8.1 mph - N/A   Clear
3:15 AM 35.4 °F 29.0 °F 31.8 °F 87% 30.10 in 10.0 mi NW 8.1 mph - N/A   Clear
3:35 AM 35.6 °F 28.6 °F 31.6 °F 85% 30.10 in 10.0 mi NW 9.2 mph - N/A   Clear
3:55 AM 33.1 °F 26.1 °F 30.0 °F 89% 30.10 in 10.0 mi NW 8.1 mph - N/A   Clear
4:15 AM 32.4 °F 25.3 °F 29.5 °F 89% 30.10 in 10.0 mi NNW 8.1 mph - N/A   Clear
4:35 AM 31.6 °F 24.4 °F 28.9 °F 90% 30.10 in 10.0 mi NNW 8.1 mph - N/A   Clear
4:55 AM 30.6 °F 24.7 °F 27.7 °F 89% 30.11 in 10.0 mi NW 5.8 mph - N/A   Clear
5:15 AM 29.8 °F 24.9 °F 27.1 °F 90% 30.10 in 10.0 mi NNW 4.6 mph - N/A   Clear
5:35 AM 30.0 °F - 27.7 °F 91% 30.11 in 10.0 mi Calm Calm - N/A   Clear
5:55 AM 32.0 °F - 29.3 °F 90% 30.11 in 10.0 mi Calm Calm - N/A   Clear
6:15 AM 31.6 °F 27.0 °F 28.8 °F 89% 30.12 in 10.0 mi NW 4.6 mph - N/A   Clear
6:35 AM 32.2 °F - 30.2 °F 92% 30.12 in 7.0 mi Calm Calm - N/A   Clear
6:55 AM 32.4 °F - 30.2 °F 92% 30.13 in 10.0 mi Calm Calm - N/A   Clear
7:15 AM 33.6 °F 30.6 °F 30.9 °F 90% 30.13 in 7.0 mi NNW 3.5 mph - N/A   Clear
7:35 AM 32.0 °F - 29.7 °F 91% 30.13 in 5.0 mi Calm Calm - N/A   Clear
7:55 AM 32.0 °F 27.5 °F 29.8 °F 92% 30.13 in 7.0 mi NW 4.6 mph - N/A   Clear
8:15 AM 34.2 °F 30.0 °F 32.0 °F 92% 30.13 in 7.0 mi NNW 4.6 mph - N/A   Clear
8:35 AM 36.5 °F 33.9 °F 32.9 °F 87% 30.13 in 7.0 mi North 3.5 mph - N/A   Clear
8:55 AM 38.3 °F - 33.6 °F 83% 30.14 in 7.0 mi Calm Calm - N/A   Clear
9:15 AM 40.5 °F 37.3 °F 34.2 °F 78% 30.14 in 7.0 mi North 4.6 mph - N/A   Clear
9:35 AM 41.4 °F 39.4 °F 34.2 °F 76% 30.14 in 10.0 mi NE 3.5 mph - N/A   Clear
9:55 AM 42.3 °F - 34.3 °F 74% 30.15 in 10.0 mi Calm Calm - N/A   Clear
10:15 AM 43.2 °F - 34.5 °F 72% 30.14 in 10.0 mi Calm Calm - N/A   Clear
10:35 AM 44.6 °F - 34.2 °F 67% 30.14 in 10.0 mi Calm Calm - N/A   Clear
10:55 AM 45.3 °F - 34.2 °F 65% 30.14 in 10.0 mi Calm Calm - N/A   Clear
11:15 AM 46.0 °F - 33.1 °F 61% 30.13 in 10.0 mi Calm Calm - N/A   Clear
11:35 AM 46.8 °F - 33.1 °F 59% 30.12 in 10.0 mi Calm Calm - N/A   Clear
11:55 AM 47.7 °F - 33.3 °F 57% 30.11 in 10.0 mi Calm Calm - N/A   Clear
12:15 PM 47.8 °F - 32.7 °F 56% 30.10 in 10.0 mi Calm Calm - N/A   Clear
12:35 PM 49.1 °F - 32.9 °F 54% 30.09 in 4.0 mi Calm Calm - N/A   Haze
12:55 PM 50.7 °F - 32.7 °F 50% 30.08 in 4.0 mi North 3.5 mph - N/A   Haze
1:15 PM 50.0 °F - 32.2 °F 50% 30.08 in 10.0 mi Calm Calm - N/A   Clear
1:35 PM 50.7 °F - 32.2 °F 49% 30.06 in 10.0 mi NE 4.6 mph - N/A   Clear
1:55 PM 51.1 °F - 32.0 °F 48% 30.06 in 10.0 mi NNE 3.5 mph - N/A   Clear
2:15 PM 51.3 °F - 32.0 °F 48% 30.05 in 10.0 mi NNE 3.5 mph - N/A   Clear
2:35 PM 51.4 °F - 32.0 °F 47% 30.04 in 10.0 mi NNE 4.6 mph - N/A   Clear
2:55 PM 51.1 °F - 31.8 °F 48% 30.03 in 10.0 mi North 3.5 mph - N/A   Clear
3:15 PM 50.9 °F - 31.6 °F 48% 30.03 in 10.0 mi Calm Calm - N/A   Clear
3:35 PM 50.9 °F - 31.5 °F 47% 30.03 in 7.0 mi Calm Calm - N/A   Scattered Clouds
3:55 PM 50.7 °F - 31.6 °F 48% 30.03 in 10.0 mi North 3.5 mph - N/A   Overcast
4:15 PM 48.4 °F - 31.8 °F 53% 30.03 in 10.0 mi NNE 4.6 mph - N/A   Overcast
4:35 PM 46.8 °F - 31.6 °F 56% 30.03 in 10.0 mi NE 3.5 mph - N/A   Overcast
4:55 PM 44.6 °F 43.1 °F 31.1 °F 59% 30.03 in 0.5 mi ENE 3.5 mph - N/A   Haze
5:15 PM 43.2 °F - 30.2 °F 60% 30.03 in 10.0 mi Calm Calm - N/A   Clear
5:35 PM 44.1 °F - 30.7 °F 59% 30.03 in 10.0 mi Calm Calm - N/A   Clear
5:55 PM 42.8 °F - 30.4 °F 62% 30.03 in 10.0 mi Calm Calm - N/A   Clear
6:15 PM 40.5 °F 37.3 °F 29.8 °F 66% 30.02 in 10.0 mi North 4.6 mph - N/A   Clear
6:35 PM 39.7 °F 35.6 °F 29.8 °F 68% 30.02 in 10.0 mi NNE 5.8 mph - N/A   Clear
6:55 PM 39.6 °F 37.4 °F 29.8 °F 68% 30.02 in 10.0 mi NNE 3.5 mph - N/A   Clear
7:15 PM 38.5 °F 35.0 °F 29.3 °F 70% 30.01 in 10.0 mi NE 4.6 mph - N/A   Clear
7:35 PM 38.8 °F 36.5 °F 29.8 °F 70% 30.02 in 10.0 mi NNE 3.5 mph - N/A   Clear
7:55 PM 38.3 °F 33.9 °F 29.5 °F 71% 30.02 in 10.0 mi NNE 5.8 mph - N/A   Clear
8:15 PM 38.3 °F 33.9 °F 30.2 °F 73% 30.02 in 10.0 mi NE 5.8 mph - N/A   Mostly Cloudy
8:35 PM 37.9 °F 33.5 °F 30.6 °F 75% 30.01 in 10.0 mi ENE 5.8 mph - N/A   Overcast
8:55 PM 37.8 °F 34.2 °F 30.6 °F 75% 30.01 in 10.0 mi NE 4.6 mph - N/A   Overcast
9:15 PM 37.0 °F 32.4 °F 30.2 °F 76% 30.01 in 10.0 mi ENE 5.8 mph - N/A   Mostly Cloudy
9:35 PM 37.6 °F 32.3 °F 30.9 °F 77% 30.00 in 10.0 mi ENE 6.9 mph - N/A   Scattered Clouds
9:55 PM 37.9 °F 33.5 °F 31.3 °F 77% 30.00 in 10.0 mi ENE 5.8 mph - N/A   Mostly Cloudy
10:15 PM 37.4 °F 32.8 °F 31.1 °F 78% 30.00 in 10.0 mi NE 5.8 mph - N/A   Mostly Cloudy
10:35 PM 36.7 °F 32.0 °F 30.9 °F 80% 29.99 in 10.0 mi NE 5.8 mph - N/A   Scattered Clouds
10:55 PM 34.3 °F 28.4 °F 29.7 °F 83% 29.98 in 7.0 mi ENE 6.9 mph - N/A   Clear
11:15 PM 33.8 °F 27.7 °F 29.3 °F 84% 29.97 in 7.0 mi ENE 6.9 mph - N/A   Clear
11:35 PM 33.3 °F 27.1 °F 29.3 °F 85% 29.97 in 7.0 mi ENE 6.9 mph - N/A   Clear
11:55 PM 34.2 °F 30.0 °F 30.6 °F 87% 29.97 in 7.0 mi NE 4.6 mph - N/A   Mostly Cloudy